ΕΜΥ, Εθνική Μετεωρολογική Υπηρεσία - Δελτία Καιρού, Προγνώσεις

ΑΕΡΟΝΑΥΤΙΛΙΑ

GREEK AIRPORTS CODES

TAF LGST 280200Z 2803/2812 32017KT 9999 FEW018 SCT025 PROB40 TEMPO 2804/2812 5000 RA SCT018 BKN025 PROB30 2806/2812 4000 TSRA SCT012 FEW018CB BKN025=

EUROPEAN AIRPORTS CODES

LFPO 280500Z AUTO 02008KT 9999 2300 R02/1100U NSC 13/07Q1031 NOSIG=